createdAt,value
2018-10-21T00:01:27.904Z,65.54
2018-10-21T00:03:57.929Z,67.15
2018-10-21T00:06:27.958Z,67.75
2018-10-21T00:08:57.837Z,64.81
2018-10-21T00:11:27.676Z,65.52
2018-10-21T00:13:57.528Z,69.02
2018-10-21T00:16:27.343Z,68.47
2018-10-21T00:18:57.188Z,68.92
2018-10-21T00:21:26.998Z,68.83
2018-10-21T00:23:56.886Z,69.07
2018-10-21T00:26:26.654Z,69.54
2018-10-21T00:28:56.480Z,69.35
2018-10-21T00:31:26.322Z,69.42
2018-10-21T00:33:56.136Z,69.08
2018-10-21T00:36:25.924Z,68.77
2018-10-21T00:38:55.866Z,68.08
2018-10-21T00:41:25.721Z,67.82
2018-10-21T00:43:55.562Z,66.48
2018-10-21T00:46:25.356Z,66.24
2018-10-21T00:48:55.239Z,64.96
2018-10-21T00:51:24.978Z,67.13
2018-10-21T00:53:54.784Z,67.44
2018-10-21T00:56:24.675Z,65.92
2018-10-21T00:58:54.439Z,66.94
2018-10-21T01:01:24.287Z,65.79
2018-10-21T01:03:54.148Z,66.40
2018-10-21T01:06:24.009Z,66.22
2018-10-21T01:08:53.972Z,65.72
2018-10-21T01:11:23.797Z,65.19
2018-10-21T01:13:53.613Z,66.85
2018-10-21T01:16:23.491Z,66.48
2018-10-21T01:18:53.511Z,65.94
2018-10-21T01:21:23.283Z,64.76
2018-10-21T01:23:53.099Z,64.31
2018-10-21T01:26:22.952Z,64.73
2018-10-21T01:28:52.707Z,63.66
2018-10-21T01:31:22.490Z,63.58
2018-10-21T01:33:52.363Z,63.28
2018-10-21T01:36:22.568Z,64.19
2018-10-21T01:38:51.952Z,69.31
2018-10-21T01:41:21.663Z,70.74
2018-10-21T01:43:51.488Z,71.40
2018-10-21T01:46:21.410Z,71.80
2018-10-21T01:48:51.158Z,72.85
2018-10-21T01:51:20.987Z,73.23
2018-10-21T01:53:50.863Z,72.71
2018-10-21T01:56:20.677Z,73.22
2018-10-21T01:58:50.447Z,73.15
2018-10-21T02:01:20.219Z,73.35
2018-10-21T02:03:50.027Z,73.03
2018-10-21T02:06:19.890Z,73.19
2018-10-21T02:08:49.644Z,73.76
2018-10-21T02:11:19.490Z,73.81
2018-10-21T02:13:49.262Z,74.46
2018-10-21T02:16:19.092Z,74.17
2018-10-21T02:18:48.901Z,74.11
2018-10-21T02:21:18.725Z,74.39
2018-10-21T02:23:48.576Z,74.71
2018-10-21T02:26:18.391Z,73.53
2018-10-21T02:28:48.073Z,72.69
2018-10-21T02:31:17.969Z,72.26
2018-10-21T02:33:47.743Z,71.77
2018-10-21T02:36:17.620Z,71.97
2018-10-21T02:38:47.356Z,71.59
2018-10-21T02:41:33.188Z,71.60
2018-10-21T02:44:03.724Z,71.07
2018-10-21T02:46:34.032Z,70.47
2018-10-21T02:49:04.676Z,70.79
2018-10-21T02:51:34.506Z,70.17
2018-10-21T02:54:04.359Z,70.28
2018-10-21T02:56:34.172Z,69.85
2018-10-21T02:59:04.020Z,69.45
2018-10-21T03:01:33.780Z,69.53
2018-10-21T03:04:03.600Z,69.57
2018-10-21T03:06:33.422Z,69.31
2018-10-21T03:09:03.337Z,69.41
2018-10-21T03:11:33.079Z,69.30
2018-10-21T03:14:02.988Z,69.34
2018-10-21T03:16:32.870Z,69.20
2018-10-21T03:19:02.819Z,69.34
2018-10-21T03:21:32.562Z,69.34
2018-10-21T03:24:02.382Z,69.01
2018-10-21T03:26:32.225Z,69.00
2018-10-21T03:29:01.981Z,68.96
2018-10-21T03:31:31.751Z,69.03
2018-10-21T03:34:01.536Z,68.64
2018-10-21T03:36:31.253Z,68.78
2018-10-21T03:39:01.069Z,68.14
2018-10-21T03:41:30.832Z,68.18
2018-10-21T03:44:00.591Z,68.39
2018-10-21T03:46:30.365Z,68.00
2018-10-21T03:49:00.164Z,66.57
2018-10-21T03:51:29.948Z,66.83
2018-10-21T03:53:59.737Z,67.07
2018-10-21T03:56:29.574Z,66.96
2018-10-21T03:58:59.362Z,67.82
2018-10-21T04:01:29.131Z,67.38
2018-10-21T04:03:58.985Z,66.59
2018-10-21T04:06:28.746Z,66.31
2018-10-21T04:08:58.522Z,66.78
2018-10-21T04:11:28.280Z,66.84
2018-10-21T04:13:58.096Z,67.30
2018-10-21T04:16:27.974Z,66.74
2018-10-21T04:18:57.731Z,66.39
2018-10-21T04:21:27.528Z,66.58
2018-10-21T04:23:57.315Z,66.07
2018-10-21T04:26:27.140Z,67.00
2018-10-21T04:28:56.931Z,66.67
2018-10-21T04:31:26.642Z,66.27
2018-10-21T04:33:56.487Z,66.46
2018-10-21T04:36:27.894Z,66.14
2018-10-21T04:40:12.714Z,66.47
2018-10-21T04:42:42.645Z,65.83
2018-10-21T04:45:13.302Z,65.15
2018-10-21T04:47:43.212Z,65.22
2018-10-21T04:50:13.457Z,64.86
2018-10-21T04:52:43.312Z,65.35
2018-10-21T04:55:14.936Z,65.82
2018-10-21T04:57:47.016Z,65.56
2018-10-21T05:00:18.988Z,65.59
2018-10-21T05:02:48.756Z,64.76
2018-10-21T05:05:18.703Z,65.43
2018-10-21T05:07:48.458Z,65.14
2018-10-21T05:10:28.961Z,65.68
2018-10-21T05:12:58.880Z,65.72
2018-10-21T05:15:29.959Z,65.25
2018-10-21T05:17:59.826Z,65.18
2018-10-21T05:20:29.708Z,65.44
2018-10-21T05:22:59.570Z,65.95
2018-10-21T05:25:29.344Z,66.50
2018-10-21T05:27:59.353Z,70.48
2018-10-21T05:30:29.205Z,68.21
2018-10-21T05:32:58.952Z,67.12
2018-10-21T05:35:28.789Z,67.45
2018-10-21T05:37:58.691Z,62.75
2018-10-21T05:40:28.523Z,61.98
2018-10-21T05:42:58.323Z,61.85
2018-10-21T05:45:28.176Z,61.92
2018-10-21T05:47:58.062Z,62.13
2018-10-21T05:50:27.837Z,61.87
2018-10-21T05:52:57.590Z,62.12
2018-10-21T05:55:27.351Z,62.08
2018-10-21T05:57:57.300Z,62.02
2018-10-21T06:00:26.988Z,62.15
2018-10-21T06:02:56.778Z,63.28
2018-10-21T06:05:49.078Z,63.83
2018-10-21T06:08:18.978Z,64.67
2018-10-21T06:10:48.746Z,65.94
2018-10-21T06:13:18.511Z,66.35
2018-10-21T06:15:48.297Z,66.61
2018-10-21T06:18:21.871Z,66.37
2018-10-21T06:20:54.211Z,66.93
2018-10-21T06:23:23.990Z,66.85
2018-10-21T06:25:53.881Z,66.92
2018-10-21T06:28:23.678Z,66.42
2018-10-21T06:30:53.467Z,65.96
2018-10-21T06:33:23.203Z,65.94
2018-10-21T06:35:53.193Z,66.42
2018-10-21T06:38:23.096Z,66.60
2018-10-21T06:40:52.938Z,66.63
2018-10-21T06:43:22.794Z,65.85
2018-10-21T06:45:52.644Z,66.20
2018-10-21T06:48:22.489Z,66.15
2018-10-21T06:50:52.301Z,66.48
2018-10-21T06:53:22.091Z,66.45
2018-10-21T06:55:51.866Z,66.21
2018-10-21T06:58:21.584Z,65.90
2018-10-21T07:00:51.460Z,65.80
2018-10-21T07:03:21.296Z,66.42
2018-10-21T07:06:24.970Z,67.12
2018-10-21T07:08:56.044Z,69.47
2018-10-21T07:11:25.828Z,67.89
2018-10-21T07:13:55.660Z,66.41
2018-10-21T07:16:25.554Z,65.52
2018-10-21T07:18:55.568Z,64.95
2018-10-21T07:21:25.398Z,63.96
2018-10-21T07:23:55.371Z,63.69
2018-10-21T07:26:25.326Z,62.29
2018-10-21T07:28:55.304Z,62.19
2018-10-21T07:31:25.107Z,61.47
2018-10-21T07:33:54.895Z,59.06
2018-10-21T07:36:24.808Z,59.58
2018-10-21T07:38:57.644Z,60.18
2018-10-21T07:41:27.487Z,60.32
2018-10-21T07:43:57.374Z,60.17
2018-10-21T07:46:27.173Z,59.62
2018-10-21T07:48:57.080Z,59.81
2018-10-21T07:51:27.588Z,60.26
2018-10-21T07:54:02.146Z,60.24
2018-10-21T07:56:32.016Z,59.07
2018-10-21T07:59:01.824Z,58.22
2018-10-21T08:01:31.698Z,58.75
2018-10-21T08:04:01.483Z,54.38
2018-10-21T08:06:42.154Z,50.49
2018-10-21T08:09:12.626Z,52.92
2018-10-21T08:11:42.431Z,50.01
2018-10-21T08:14:12.387Z,48.69
2018-10-21T08:16:42.223Z,47.35
2018-10-21T08:19:12.368Z,46.69
2018-10-21T08:21:42.187Z,47.27
2018-10-21T08:24:12.091Z,48.26
2018-10-21T08:26:42.080Z,47.17
2018-10-21T08:29:12.022Z,47.15
2018-10-21T08:31:41.907Z,47.15
2018-10-21T08:34:11.796Z,46.70
2018-10-21T08:36:41.676Z,45.63
2018-10-21T08:39:11.589Z,45.35
2018-10-21T08:41:41.459Z,45.96
2018-10-21T08:44:11.314Z,44.50
2018-10-21T08:46:41.296Z,44.06
2018-10-21T08:49:11.119Z,43.29
2018-10-21T08:51:40.995Z,41.79
2018-10-21T08:54:10.928Z,42.72
2018-10-21T08:56:40.797Z,44.05
2018-10-21T08:59:10.621Z,44.52
2018-10-21T09:01:40.519Z,42.93
2018-10-21T09:04:10.530Z,42.67
2018-10-21T09:06:40.375Z,43.15
2018-10-21T09:09:11.737Z,46.36
2018-10-21T09:11:42.028Z,47.51
2018-10-21T09:14:12.519Z,45.63
2018-10-21T09:16:42.485Z,41.30
2018-10-21T09:19:12.377Z,40.48
2018-10-21T09:21:42.232Z,41.27
2018-10-21T09:24:12.140Z,40.09
2018-10-21T09:26:42.040Z,40.71
2018-10-21T09:29:11.922Z,41.07
2018-10-21T09:31:41.864Z,40.09
2018-10-21T09:34:11.806Z,40.00
2018-10-21T09:36:41.590Z,40.23
2018-10-21T09:39:13.619Z,41.31
2018-10-21T09:41:44.243Z,41.60
2018-10-21T09:44:14.164Z,40.30
2018-10-21T09:46:44.111Z,40.61
2018-10-21T09:49:14.285Z,40.95
2018-10-21T09:51:44.040Z,41.00
2018-10-21T09:54:13.950Z,41.48
2018-10-21T09:56:43.796Z,42.38
2018-10-21T09:59:13.751Z,41.16
2018-10-21T10:01:48.676Z,42.02
2018-10-21T10:04:18.585Z,41.63
2018-10-21T10:06:48.582Z,42.73
2018-10-21T10:09:18.688Z,41.06
2018-10-21T10:11:48.516Z,41.59
2018-10-21T10:14:18.503Z,41.58
2018-10-21T10:16:48.358Z,42.39
2018-10-21T10:19:18.408Z,41.28
2018-10-21T10:21:48.284Z,42.26
2018-10-21T10:24:18.108Z,40.84
2018-10-21T10:26:47.969Z,40.54
2018-10-21T10:29:17.847Z,41.11
2018-10-21T10:31:47.694Z,40.65
2018-10-21T10:34:17.672Z,40.36
2018-10-21T10:36:47.482Z,41.05
2018-10-21T10:39:17.350Z,41.60
2018-10-21T10:41:47.209Z,40.61
2018-10-21T10:44:17.073Z,41.26
2018-10-21T10:46:47.001Z,42.25
2018-10-21T10:49:16.967Z,40.52
2018-10-21T10:51:46.761Z,41.15
2018-10-21T10:54:16.739Z,40.39
2018-10-21T10:56:46.646Z,40.58
2018-10-21T10:59:16.519Z,39.06
2018-10-21T11:01:46.447Z,39.64
2018-10-21T11:04:16.373Z,40.39
2018-10-21T11:06:46.249Z,40.83
2018-10-21T11:09:16.172Z,41.82
2018-10-21T11:11:46.070Z,41.09
2018-10-21T11:14:16.112Z,40.79
2018-10-21T11:16:46.118Z,40.81
2018-10-21T11:19:16.076Z,40.74
2018-10-21T11:21:46.015Z,39.93
2018-10-21T11:24:16.051Z,39.86
2018-10-21T11:26:46.078Z,40.79
2018-10-21T11:29:16.124Z,40.62
2018-10-21T11:31:46.156Z,40.21
2018-10-21T11:34:16.624Z,40.97
2018-10-21T11:36:46.548Z,41.39
2018-10-21T11:39:16.431Z,39.67
2018-10-21T11:41:46.375Z,40.69
2018-10-21T11:44:16.322Z,40.74
2018-10-21T11:46:46.372Z,40.83
2018-10-21T11:49:16.453Z,40.91
2018-10-21T11:51:46.300Z,41.17
2018-10-21T11:54:16.376Z,41.31
2018-10-21T11:56:46.279Z,40.22
2018-10-21T11:59:16.147Z,40.75
2018-10-21T12:01:46.188Z,40.64
2018-10-21T12:04:16.322Z,40.65
2018-10-21T12:06:46.322Z,40.71
2018-10-21T12:09:16.375Z,41.12
2018-10-21T12:11:46.373Z,40.59
2018-10-21T12:14:16.440Z,41.42
2018-10-21T12:16:46.350Z,41.63
2018-10-21T12:19:16.399Z,42.64
2018-10-21T12:21:46.319Z,42.60
2018-10-21T12:24:16.346Z,42.53
2018-10-21T12:26:46.295Z,42.62
2018-10-21T12:29:16.374Z,42.54
2018-10-21T12:31:46.292Z,42.66
2018-10-21T12:34:16.292Z,42.04
2018-10-21T12:36:46.171Z,42.62
2018-10-21T12:39:16.153Z,43.58
2018-10-21T12:41:46.096Z,43.08
2018-10-21T12:44:16.090Z,43.14
2018-10-21T12:46:46.071Z,42.41
2018-10-21T12:49:16.138Z,42.15
2018-10-21T12:51:45.968Z,42.56
2018-10-21T12:54:15.993Z,42.40
2018-10-21T12:56:45.979Z,42.60
2018-10-21T12:59:16.026Z,41.45
2018-10-21T13:01:46.004Z,42.25
2018-10-21T13:04:16.072Z,42.70
2018-10-21T13:06:45.921Z,43.60
2018-10-21T13:09:15.815Z,43.36
2018-10-21T13:11:45.798Z,44.58
2018-10-21T13:14:15.723Z,44.63
2018-10-21T13:16:45.702Z,45.00
2018-10-21T13:19:15.724Z,44.04
2018-10-21T13:21:45.814Z,43.84
2018-10-21T13:24:15.783Z,43.68
2018-10-21T13:26:45.753Z,43.18
2018-10-21T13:29:15.759Z,44.51
2018-10-21T13:31:45.670Z,43.97
2018-10-21T13:34:15.891Z,44.30
2018-10-21T13:36:45.731Z,44.23
2018-10-21T13:39:15.787Z,44.87
2018-10-21T13:42:22.967Z,44.47
2018-10-21T13:44:53.007Z,44.81
2018-10-21T13:47:22.786Z,44.96
2018-10-21T13:49:52.526Z,45.51
2018-10-21T13:52:22.698Z,45.65
2018-10-21T13:54:55.271Z,45.88
2018-10-21T13:57:25.839Z,45.21
2018-10-21T13:59:56.877Z,45.64
2018-10-21T14:02:27.882Z,45.20
2018-10-21T14:04:58.785Z,45.09
2018-10-21T14:07:29.642Z,45.41
2018-10-21T14:10:00.495Z,44.75
2018-10-21T14:12:31.287Z,44.96
2018-10-21T14:15:02.040Z,44.28
2018-10-21T14:17:31.862Z,44.55
2018-10-21T14:20:01.562Z,44.86
2018-10-21T14:22:31.884Z,44.93
2018-10-21T14:25:01.759Z,44.11
2018-10-21T14:27:31.409Z,44.50
2018-10-21T14:30:01.845Z,42.87
2018-10-21T14:32:33.754Z,43.19
2018-10-21T14:35:03.987Z,42.47
2018-10-21T14:37:34.371Z,43.42
2018-10-21T14:40:04.137Z,44.02
2018-10-21T14:42:34.386Z,43.86
2018-10-21T14:45:05.380Z,44.29
2018-10-21T14:47:35.437Z,44.04
2018-10-21T14:50:05.184Z,44.04
2018-10-21T14:52:35.062Z,43.87
2018-10-21T14:55:04.905Z,43.78
2018-10-21T14:57:35.147Z,44.13
2018-10-21T15:00:06.307Z,44.67
2018-10-21T15:02:43.599Z,45.73
2018-10-21T15:05:14.002Z,45.86
2018-10-21T15:07:45.945Z,45.39
2018-10-21T15:10:15.880Z,45.50
2018-10-21T15:12:45.639Z,46.06
2018-10-21T15:15:16.175Z,48.28
2018-10-21T15:17:47.089Z,46.16
2018-10-21T15:20:17.270Z,46.00
2018-10-21T15:22:47.068Z,46.59
2018-10-21T15:25:17.559Z,45.92
2018-10-21T15:27:47.919Z,46.64
2018-10-21T15:33:48.367Z,47.54
2018-10-21T15:36:19.246Z,47.64
2018-10-21T15:38:49.393Z,47.82
2018-10-21T15:41:20.332Z,48.10
2018-10-21T15:43:51.178Z,47.50
2018-10-21T15:46:47.376Z,47.64
2018-10-21T15:49:18.586Z,47.81
2018-10-21T15:51:49.312Z,47.98
2018-10-21T15:54:20.124Z,48.76
2018-10-21T15:56:50.393Z,48.57
2018-10-21T15:59:21.349Z,49.20
2018-10-21T16:05:04.764Z,48.59
2018-10-21T16:07:35.617Z,48.98
2018-10-21T16:13:37.144Z,49.40
2018-10-21T16:16:07.807Z,49.56
2018-10-21T16:18:38.556Z,49.52
2018-10-21T16:21:58.855Z,50.22
2018-10-21T16:24:29.416Z,49.58
2018-10-21T16:27:33.704Z,50.59
2018-10-21T16:30:03.954Z,50.37
2018-10-21T16:32:33.807Z,50.51
2018-10-21T16:35:42.892Z,50.20
2018-10-21T16:38:13.042Z,50.89
2018-10-21T16:44:14.566Z,51.07
2018-10-21T16:46:44.711Z,53.05
2018-10-21T16:52:47.620Z,51.84
2018-10-21T17:02:21.214Z,52.82
2018-10-21T17:08:22.811Z,54.55
2018-10-21T17:10:53.064Z,55.32
2018-10-21T17:13:23.452Z,55.64
2018-10-21T17:19:24.902Z,56.28
2018-10-21T17:25:26.683Z,56.57
2018-10-21T17:27:57.439Z,57.02
2018-10-21T17:30:27.749Z,57.68
2018-10-21T17:32:57.537Z,57.37
2018-10-21T17:35:28.321Z,56.82
2018-10-21T17:37:58.700Z,57.77
2018-10-21T17:40:28.891Z,57.20
2018-10-21T17:42:58.916Z,57.32
2018-10-21T17:45:29.319Z,57.64
2018-10-21T17:48:39.716Z,57.05
2018-10-21T17:51:09.760Z,56.91
2018-10-21T17:53:44.492Z,56.73
2018-10-21T17:56:14.679Z,56.58
2018-10-21T17:58:53.355Z,56.77
2018-10-21T18:01:23.992Z,57.04
2018-10-21T18:03:54.045Z,57.39
2018-10-21T18:06:24.135Z,58.24
2018-10-21T18:08:54.371Z,58.24
2018-10-21T18:11:25.740Z,58.44
2018-10-21T18:13:56.374Z,59.47
2018-10-21T18:16:26.967Z,59.40
2018-10-21T18:18:57.519Z,59.78
2018-10-21T18:21:28.083Z,59.60
2018-10-21T18:23:58.928Z,60.00
2018-10-21T18:26:28.996Z,60.17
2018-10-21T18:28:59.552Z,60.35
2018-10-21T18:31:29.646Z,60.69
2018-10-21T18:34:00.248Z,60.71
2018-10-21T18:36:31.031Z,61.29
2018-10-21T18:39:02.086Z,61.51
2018-10-21T18:41:32.105Z,61.09
2018-10-21T18:44:02.267Z,61.56
2018-10-21T18:46:32.509Z,61.80
2018-10-21T18:49:02.964Z,62.07
2018-10-21T18:51:33.166Z,63.42
2018-10-21T18:54:04.250Z,63.32
2018-10-21T18:56:34.681Z,63.55
2018-10-21T18:59:04.802Z,64.04
2018-10-21T19:01:35.374Z,63.83
2018-10-21T19:04:06.991Z,63.65
2018-10-21T19:06:37.670Z,64.61
2018-10-21T19:09:12.291Z,65.37
2018-10-21T19:11:43.390Z,65.61
2018-10-21T19:14:13.697Z,64.87
2018-10-21T19:16:43.663Z,65.54
2018-10-21T19:19:13.889Z,65.53
2018-10-21T19:21:44.290Z,65.60
2018-10-21T19:24:14.950Z,66.06
2018-10-21T19:26:45.539Z,66.76
2018-10-21T19:29:16.084Z,66.63
2018-10-21T19:31:46.176Z,66.82
2018-10-21T19:34:16.693Z,66.62
2018-10-21T19:36:46.602Z,66.61
2018-10-21T19:39:16.583Z,67.07
2018-10-21T19:41:47.004Z,67.00
2018-10-21T19:44:17.047Z,67.17
2018-10-21T19:46:47.443Z,67.44
2018-10-21T19:49:17.944Z,67.33
2018-10-21T19:51:48.582Z,67.17
2018-10-21T19:54:20.015Z,66.95
2018-10-21T19:56:50.811Z,66.98
2018-10-21T19:59:20.880Z,66.91
2018-10-21T20:01:51.207Z,69.15
2018-10-21T20:04:21.143Z,68.71
2018-10-21T20:06:51.471Z,68.50
2018-10-21T20:09:21.672Z,68.59
2018-10-21T20:11:51.819Z,68.66
2018-10-21T20:14:21.973Z,68.77
2018-10-21T20:16:51.772Z,68.47
2018-10-21T20:19:21.963Z,68.70
2018-10-21T20:21:52.342Z,68.29
2018-10-21T20:24:24.042Z,68.07
2018-10-21T20:26:53.705Z,67.60
2018-10-21T20:29:24.819Z,67.69
2018-10-21T20:31:55.978Z,68.58
2018-10-21T20:34:26.105Z,68.77
2018-10-21T20:36:56.978Z,68.68
2018-10-21T20:39:26.757Z,67.87
2018-10-21T20:41:58.825Z,67.54
2018-10-21T20:44:29.539Z,67.45
2018-10-21T20:46:59.842Z,67.56
2018-10-21T20:49:30.172Z,68.33
2018-10-21T20:52:01.044Z,68.00
2018-10-21T20:54:36.736Z,68.23
2018-10-21T20:57:10.021Z,67.51
2018-10-21T20:59:41.265Z,67.56
2018-10-21T21:02:12.617Z,67.40
2018-10-21T21:04:43.556Z,67.70
2018-10-21T21:07:14.193Z,67.71
2018-10-21T21:09:44.922Z,67.71
2018-10-21T21:12:16.381Z,67.39
2018-10-21T21:14:46.964Z,67.29
2018-10-21T21:17:16.784Z,67.73
2018-10-21T21:19:46.604Z,67.63
2018-10-21T21:22:16.488Z,68.09
2018-10-21T21:24:46.416Z,67.87
2018-10-21T21:27:16.383Z,68.13
2018-10-21T21:29:46.294Z,67.88
2018-10-21T21:32:16.183Z,68.64
2018-10-21T21:34:46.044Z,68.59
2018-10-21T21:37:15.795Z,68.82
2018-10-21T21:39:45.657Z,68.89
2018-10-21T21:42:15.518Z,68.60
2018-10-21T21:44:45.343Z,68.70
2018-10-21T21:47:15.116Z,68.89
2018-10-21T21:49:44.924Z,68.86
2018-10-21T21:52:14.812Z,68.53
2018-10-21T21:54:44.540Z,68.34
2018-10-21T21:57:14.364Z,68.69
2018-10-21T21:59:44.335Z,69.10
2018-10-21T22:02:14.177Z,69.09
2018-10-21T22:04:44.059Z,68.79
2018-10-21T22:07:13.935Z,69.25
2018-10-21T22:09:43.802Z,69.58
2018-10-21T22:12:13.732Z,69.96
2018-10-21T22:14:43.482Z,70.19
2018-10-21T22:17:13.348Z,69.83
2018-10-21T22:19:43.163Z,70.07
2018-10-21T22:22:13.026Z,70.33
2018-10-21T22:24:42.847Z,70.15
2018-10-21T22:27:12.711Z,69.99
2018-10-21T22:29:42.508Z,70.26
2018-10-21T22:32:12.355Z,70.24
2018-10-21T22:34:42.211Z,70.44
2018-10-21T22:37:12.001Z,70.24
2018-10-21T22:39:41.970Z,70.60
2018-10-21T22:42:11.833Z,70.67
2018-10-21T22:44:41.558Z,70.86
2018-10-21T22:47:12.366Z,71.05
2018-10-21T22:49:42.242Z,70.94
2018-10-21T22:52:12.078Z,70.72
2018-10-21T22:54:41.858Z,70.79
2018-10-21T22:57:18.692Z,70.81
2018-10-21T22:59:50.059Z,70.82
2018-10-21T23:02:19.845Z,70.82
2018-10-21T23:04:49.683Z,70.87
2018-10-21T23:07:19.517Z,70.98
2018-10-21T23:09:49.380Z,71.11
2018-10-21T23:12:19.165Z,70.68
2018-10-21T23:14:48.987Z,70.46
2018-10-21T23:17:18.906Z,70.63
2018-10-21T23:19:49.952Z,70.95
2018-10-21T23:22:19.844Z,70.74
2018-10-21T23:24:49.629Z,70.68
2018-10-21T23:27:19.451Z,70.42
2018-10-21T23:29:49.287Z,70.01
2018-10-21T23:32:19.103Z,69.48
2018-10-21T23:34:48.907Z,69.75
2018-10-21T23:37:18.711Z,69.89
2018-10-21T23:39:48.607Z,69.98
2018-10-21T23:42:18.447Z,70.35
2018-10-21T23:44:48.219Z,70.31
2018-10-21T23:47:18.047Z,70.33
2018-10-21T23:49:47.846Z,70.56
2018-10-21T23:52:17.711Z,70.39
2018-10-21T23:54:47.417Z,70.13
2018-10-21T23:57:17.166Z,70.16
2018-10-21T23:59:47.050Z,70.52
